Time;durP1;ratioP1;P1;durP2;ratioP2;P2;SDS_P1;SDS_P2;PMS_P1;PMS_P2;Temp;Humidity;BMP_temperature;BMP_pressure;BME280_temperature;BME280_humidity;BME280_pressure;Samples;Min_cycle;Max_cycle;Signal;HPM_P1;HPM_P2
2022/06/02 00:01:15;;;;;;;4.72;3.00;;;8.50;99.90;;;;;;5015494;28;20105;-71
2022/06/02 00:03:49;;;;;;;5.82;3.05;;;8.50;99.90;;;;;;5009459;28;20046;-71
2022/06/02 00:06:52;;;;;;;4.45;2.63;;;8.50;99.90;;;;;;5014880;28;20025;-71
2022/06/02 00:09:26;;;;;;;4.32;2.70;;;8.50;99.90;;;;;;5014879;28;20109;-71
2022/06/02 00:12:05;;;;;;;4.45;3.22;;;8.50;99.90;;;;;;5013548;28;20507;-71
2022/06/02 00:14:48;;;;;;;8.45;3.30;;;8.50;99.90;;;;;;5014429;28;20546;-71
2022/06/02 00:17:26;;;;;;;8.25;4.00;;;8.50;99.90;;;;;;5015053;28;20375;-71
2022/06/02 00:20:15;;;;;;;7.20;4.55;;;8.40;99.90;;;;;;5014722;28;20052;-71
2022/06/02 00:23:02;;;;;;;12.52;4.85;;;8.40;99.90;;;;;;5009070;28;20038;-72
2022/06/02 00:25:31;;;;;;;7.20;4.43;;;8.40;99.90;;;;;;5014271;28;20041;-74
2022/06/02 00:28:31;;;;;;;7.10;4.03;;;8.40;99.90;;;;;;5014697;28;20493;-74
2022/06/02 00:31:34;;;;;;;10.88;3.92;;;8.40;99.90;;;;;;5014860;28;20501;-74
2022/06/02 00:34:19;;;;;;;7.15;4.38;;;8.40;99.90;;;;;;5014594;28;20049;-74
2022/06/02 00:37:09;;;;;;;7.75;4.63;;;8.30;99.90;;;;;;5013279;28;20022;-74
2022/06/02 00:39:35;;;;;;;8.48;4.07;;;8.30;99.90;;;;;;5014725;28;20485;-74
2022/06/02 00:42:04;;;;;;;8.43;4.50;;;8.30;99.90;;;;;;5014689;28;20080;-74
2022/06/02 00:44:36;;;;;;;;;;;8.20;99.90;;;;;;5014802;28;20542;-74
2022/06/02 00:47:30;;;;;;;7.32;3.63;;;8.20;99.90;;;;;;5014284;28;20017;-74
2022/06/02 00:50:20;;;;;;;6.03;3.70;;;8.20;99.90;;;;;;5014241;28;20030;-74
2022/06/02 00:53:05;;;;;;;6.35;3.83;;;8.20;99.90;;;;;;5013167;28;20049;-74
2022/06/02 00:58:45;;;;;;;10.20;4.35;;;8.20;99.90;;;;;;5014392;28;20110;-74
2022/06/02 01:01:37;;;;;;;7.30;3.58;;;8.20;99.90;;;;;;5013251;28;20121;-74
2022/06/02 01:04:09;;;;;;;7.43;3.50;;;8.10;99.90;;;;;;5012334;28;20044;-74
2022/06/02 01:06:49;;;;;;;6.78;3.42;;;8.10;99.90;;;;;;5014477;28;20030;-74
2022/06/02 01:09:26;;;;;;;5.93;3.42;;;8.10;99.90;;;;;;5014723;28;20024;-74
2022/06/02 01:12:14;;;;;;;7.22;3.60;;;8.10;99.90;;;;;;5013047;28;20034;-74
2022/06/02 01:15:16;;;;;;;7.88;4.30;;;8.10;99.90;;;;;;5012819;28;20117;-74
2022/06/02 01:18:07;;;;;;;5.82;3.75;;;8.00;99.90;;;;;;5012928;28;20397;-74
2022/06/02 01:20:43;;;;;;;7.55;4.00;;;8.00;99.90;;;;;;5013114;28;20076;-74
2022/06/02 01:23:24;;;;;;;7.97;4.25;;;8.00;99.90;;;;;;5014356;28;20543;-74
2022/06/02 01:26:31;;;;;;;8.57;3.90;;;8.00;99.90;;;;;;5013437;28;20071;-74
2022/06/02 01:29:26;;;;;;;8.73;4.45;;;8.00;99.90;;;;;;5014109;28;20030;-74
2022/06/02 01:32:02;;;;;;;11.30;3.92;;;7.90;99.90;;;;;;5012263;28;20044;-74
2022/06/02 01:34:38;;;;;;;7.10;4.22;;;7.90;99.90;;;;;;5014390;28;20478;-74
2022/06/02 01:37:11;;;;;;;7.30;4.70;;;7.90;99.90;;;;;;5015639;28;20029;-74
2022/06/02 01:39:49;;;;;;;7.65;4.20;;;7.90;99.90;;;;;;5018311;28;20021;-74
2022/06/02 01:43:01;;;;;;;8.32;4.88;;;7.80;99.90;;;;;;5017753;28;20017;-74
2022/06/02 01:45:54;;;;;;;18.27;5.18;;;7.80;99.90;;;;;;5016770;28;20496;-74
2022/06/02 01:48:48;;;;;;;10.15;4.45;;;7.80;99.90;;;;;;5018371;28;20080;-74
2022/06/02 01:51:39;;;;;;;7.28;4.72;;;7.80;99.90;;;;;;5016790;28;20113;-74
2022/06/02 01:54:13;;;;;;;9.38;4.30;;;7.80;99.90;;;;;;5017697;28;20018;-74
2022/06/02 01:57:03;;;;;;;8.15;4.47;;;7.80;99.90;;;;;;5018322;28;20382;-74
2022/06/02 02:00:06;;;;;;;9.02;5.32;;;7.70;99.90;;;;;;5018393;28;20050;-74
2022/06/02 02:02:32;;;;;;;7.93;3.67;;;7.70;99.90;;;;;;5018118;28;20033;-74
2022/06/02 02:05:14;;;;;;;7.30;4.60;;;7.70;99.90;;;;;;5016484;28;20030;-74
2022/06/02 02:07:46;;;;;;;8.05;4.28;;;7.60;99.90;;;;;;5018527;28;20033;-74
2022/06/02 02:10:41;;;;;;;8.57;4.10;;;7.60;99.90;;;;;;5017607;28;20025;-74
2022/06/02 02:13:34;;;;;;;7.28;4.07;;;7.60;99.90;;;;;;5017374;28;20393;-74
2022/06/02 02:16:26;;;;;;;8.73;4.57;;;7.60;99.90;;;;;;5017083;28;20054;-74
2022/06/02 02:19:13;;;;;;;9.77;4.80;;;7.60;99.90;;;;;;5017947;28;20018;-74
2022/06/02 02:22:14;;;;;;;8.55;5.25;;;7.60;99.90;;;;;;5018339;28;20429;-74
2022/06/02 02:25:01;;;;;;;9.48;4.68;;;7.50;99.90;;;;;;5017188;28;20036;-74
2022/06/02 02:28:02;;;;;;;13.10;5.07;;;7.50;99.90;;;;;;5017719;28;20084;-74
2022/06/02 02:30:43;;;;;;;10.63;5.70;;;7.50;99.90;;;;;;5017183;28;20026;-74
2022/06/02 02:33:39;;;;;;;7.65;5.10;;;7.40;99.90;;;;;;5016985;28;20029;-73
2022/06/02 02:36:36;;;;;;;10.00;5.82;;;7.40;99.90;;;;;;5015818;28;20027;-74
2022/06/02 02:39:16;;;;;;;10.57;5.80;;;7.40;99.90;;;;;;5017278;28;20152;-74
2022/06/02 02:41:58;;;;;;;9.85;5.78;;;7.50;99.90;;;;;;5016935;28;20025;-74
2022/06/02 02:45:03;;;;;;;11.05;6.80;;;7.40;99.90;;;;;;5017097;28;20022;-74
2022/06/02 02:48:01;;;;;;;13.60;6.35;;;7.50;99.90;;;;;;5005091;28;20575;-74
2022/06/02 02:50:33;;;;;;;11.32;5.95;;;7.50;99.90;;;;;;4980997;28;20043;-74
2022/06/02 02:53:20;;;;;;;12.82;6.03;;;7.40;99.90;;;;;;5017645;28;20180;-74
2022/06/02 02:56:06;;;;;;;8.75;5.40;;;7.40;99.90;;;;;;5016588;28;20025;-74
2022/06/02 02:58:43;;;;;;;9.23;5.72;;;7.40;99.90;;;;;;5016393;28;20034;-74
2022/06/02 03:01:18;;;;;;;10.98;5.82;;;7.40;99.90;;;;;;5016719;28;20030;-74
2022/06/02 03:04:10;;;;;;;11.70;5.07;;;7.30;99.90;;;;;;5015522;28;20401;-74
2022/06/02 03:06:44;;;;;;;9.82;5.18;;;7.30;99.90;;;;;;5015335;28;20112;-74
2022/06/02 03:09:24;;;;;;;9.07;5.53;;;7.30;99.90;;;;;;5016430;28;20029;-71
2022/06/02 03:11:52;;;;;;;10.35;5.43;;;7.20;99.90;;;;;;5016132;28;20025;-71
2022/06/02 03:14:50;;;;;;;11.85;5.45;;;7.20;99.90;;;;;;5016677;28;20025;-71
2022/06/02 03:17:22;;;;;;;9.50;4.70;;;7.20;99.90;;;;;;5016398;28;20026;-71
2022/06/02 03:20:03;;;;;;;8.55;5.03;;;7.20;99.90;;;;;;5016389;28;20018;-71
2022/06/02 03:23:02;;;;;;;5.97;4.13;;;7.20;99.90;;;;;;5016095;28;20084;-71
2022/06/02 03:25:48;;;;;;;9.50;3.90;;;7.20;99.90;;;;;;5016813;28;20450;-71
2022/06/02 03:28:23;;;;;;;12.50;4.70;;;7.20;99.90;;;;;;5016218;28;20029;-71
2022/06/02 03:30:58;;;;;;;7.15;3.83;;;7.20;99.90;;;;;;5016199;28;20036;-71
2022/06/02 03:33:52;;;;;;;6.93;3.72;;;7.10;99.90;;;;;;5014692;28;20037;-71
2022/06/02 03:36:42;;;;;;;5.97;3.40;;;7.10;99.90;;;;;;5015903;28;20053;-71
2022/06/02 03:39:16;;;;;;;5.07;3.13;;;7.10;99.90;;;;;;5014550;28;20133;-71
2022/06/02 03:41:57;;;;;;;6.13;3.67;;;7.00;99.90;;;;;;5015634;28;20025;-71
2022/06/02 03:44:50;;;;;;;6.05;3.13;;;7.00;99.90;;;;;;5015575;28;20120;-71
2022/06/02 03:47:27;;;;;;;6.80;3.42;;;6.90;99.90;;;;;;5016306;28;20044;-71
2022/06/02 03:49:59;;;;;;;11.10;4.82;;;7.00;99.90;;;;;;5015941;28;20029;-71
2022/06/02 03:52:40;;;;;;;8.07;4.78;;;7.00;99.90;;;;;;5016083;28;20033;-71
2022/06/02 03:55:57;;;;;;;7.82;4.30;;;7.00;99.90;;;;;;5015933;28;20037;-71
2022/06/02 03:58:35;;;;;;;7.53;4.10;;;7.00;99.90;;;;;;4998349;28;20128;-71
2022/06/02 04:01:04;;;;;;;8.45;4.85;;;7.00;99.90;;;;;;5015227;28;20022;-71
2022/06/02 04:03:42;;;;;;;7.40;3.90;;;7.10;99.90;;;;;;5015476;28;20034;-71
2022/06/02 04:06:22;;;;;;;8.13;3.83;;;7.10;99.90;;;;;;5015482;28;20057;-71
2022/06/02 04:09:13;;;;;;;8.10;3.92;;;7.10;99.90;;;;;;5015352;28;20084;-71
2022/06/02 04:15:09;;;;;;;4.85;3.03;;;7.20;99.90;;;;;;5015913;28;20060;-71
2022/06/02 04:18:06;;;;;;;5.97;2.80;;;7.30;99.90;;;;;;5016280;28;20021;-71
2022/06/02 04:20:50;;;;;;;6.30;3.17;;;7.30;99.90;;;;;;5015346;28;20149;-71
2022/06/02 04:23:48;;;;;;;5.30;3.20;;;7.40;99.90;;;;;;5015264;28;20034;-71
2022/06/02 04:26:48;;;;;;;8.15;3.50;;;7.50;99.90;;;;;;5013621;28;20124;-71
2022/06/02 04:29:23;;;;;;;4.82;3.10;;;7.60;99.90;;;;;;5015662;28;20026;-71
2022/06/02 04:31:48;;;;;;;7.57;3.42;;;7.70;99.90;;;;;;5014796;28;20061;-71
2022/06/02 04:34:31;;;;;;;6.18;3.45;;;7.80;99.90;;;;;;5015224;28;20049;-71
2022/06/02 04:37:10;;;;;;;6.65;3.45;;;7.90;99.90;;;;;;5014993;28;20024;-71
2022/06/02 04:40:00;;;;;;;5.13;3.22;;;8.00;99.90;;;;;;5015105;28;20032;-71
2022/06/02 04:42:44;;;;;;;6.10;3.42;;;8.10;99.90;;;;;;5014661;28;20160;-71
2022/06/02 04:45:42;;;;;;;8.55;4.47;;;8.10;99.90;;;;;;5014635;28;20397;-71
2022/06/02 04:48:22;;;;;;;13.53;5.00;;;8.30;99.90;;;;;;5014407;28;20088;-71
2022/06/02 04:51:05;;;;;;;8.13;4.28;;;8.40;99.90;;;;;;5014712;28;20120;-71
2022/06/02 04:54:10;;;;;;;9.02;4.63;;;8.60;99.90;;;;;;5014479;28;20022;-71
2022/06/02 04:56:45;;;;;;;10.27;3.95;;;8.70;99.90;;;;;;4983336;28;20030;-71
2022/06/02 04:59:40;;;;;;;8.85;4.35;;;8.80;99.90;;;;;;5014184;28;20092;-73
2022/06/02 05:02:44;;;;;;;11.57;5.72;;;8.90;99.90;;;;;;5013976;28;20466;-74
2022/06/02 05:05:24;;;;;;;9.80;5.00;;;9.00;99.90;;;;;;5014094;28;20123;-73
2022/06/02 05:08:05;;;;;;;8.95;4.68;;;9.20;99.90;;;;;;5014056;28;20065;-74
2022/06/02 05:10:53;;;;;;;10.35;4.75;;;9.30;99.90;;;;;;5013345;28;20393;-74
2022/06/02 05:13:37;;;;;;;11.27;5.35;;;9.50;99.90;;;;;;5013615;28;20032;-74
2022/06/02 05:16:43;;;;;;;9.35;5.78;;;9.60;99.90;;;;;;5013738;28;20033;-74
2022/06/02 05:19:31;;;;;;;10.95;6.00;;;9.80;99.90;;;;;;5012350;28;20026;-74
2022/06/02 05:22:31;;;;;;;9.65;5.90;;;10.00;99.90;;;;;;5013606;28;20038;-73
2022/06/02 05:25:19;;;;;;;12.32;6.60;;;10.20;99.90;;;;;;5013618;28;20026;-74
2022/06/02 05:27:53;;;;;;;12.85;7.32;;;10.30;99.90;;;;;;5012334;28;20030;-74
2022/06/02 05:30:42;;;;;;;12.60;7.47;;;10.50;99.90;;;;;;5013430;28;20061;-74
2022/06/02 05:33:35;;;;;;;14.68;7.88;;;10.70;99.90;;;;;;5012070;28;20030;-74
2022/06/02 05:36:19;;;;;;;12.90;8.23;;;10.80;99.90;;;;;;5013526;28;20499;-74
2022/06/02 05:39:02;;;;;;;15.95;9.10;;;11.00;99.90;;;;;;5013616;28;20097;-73
2022/06/02 05:41:49;;;;;;;16.02;9.10;;;11.10;99.90;;;;;;5012090;28;20030;-73
2022/06/02 05:44:35;;;;;;;16.88;9.23;;;11.30;99.90;;;;;;5013802;28;20053;-75
2022/06/02 05:47:42;;;;;;;16.50;8.88;;;11.40;99.90;;;;;;5013438;28;20018;-75
2022/06/02 05:50:30;;;;;;;14.02;8.25;;;11.60;99.90;;;;;;4999020;28;20077;-75
2022/06/02 05:52:55;;;;;;;19.30;9.23;;;11.80;99.90;;;;;;5013281;28;20064;-75
2022/06/02 05:55:49;;;;;;;13.70;7.18;;;11.90;99.90;;;;;;5013014;28;20378;-74
2022/06/02 05:58:38;;;;;;;11.23;6.85;;;12.00;99.90;;;;;;5013244;28;20026;-74
2022/06/02 06:03:50;;;;;;;10.55;5.88;;;12.30;99.90;;;;;;5031583;28;20042;-74
2022/06/02 06:06:36;;;;;;;9.23;5.68;;;12.30;99.90;;;;;;5031516;28;20213;-74
2022/06/02 06:09:28;;;;;;;7.95;4.95;;;12.40;99.90;;;;;;5032808;28;20018;-74
2022/06/02 06:12:12;;;;;;;10.30;5.32;;;12.50;99.90;;;;;;5033299;28;20029;-74
2022/06/02 06:15:01;;;;;;;7.93;3.78;;;12.70;99.90;;;;;;5032717;28;20100;-73
2022/06/02 06:17:36;;;;;;;6.82;4.00;;;12.80;99.90;;;;;;5032879;28;20503;-74
2022/06/02 06:20:16;;;;;;;8.93;4.40;;;12.90;99.90;;;;;;5033375;28;20017;-74
2022/06/02 06:23:15;;;;;;;7.10;3.78;;;13.00;99.90;;;;;;5033766;28;20480;-74
2022/06/02 06:26:16;;;;;;;6.28;3.90;;;13.10;99.90;;;;;;5036565;28;20018;-74
2022/06/02 06:29:04;;;;;;;5.00;3.35;;;13.20;99.90;;;;;;5021913;28;20046;-74
2022/06/02 06:31:46;;;;;;;6.70;4.03;;;13.20;99.90;;;;;;5036361;28;20028;-74
2022/06/02 06:34:50;;;;;;;5.97;2.95;;;13.30;99.90;;;;;;5034880;28;20035;-74
2022/06/02 06:37:43;;;;;;;4.07;2.58;;;13.40;99.90;;;;;;5035632;28;20492;-74
2022/06/02 06:40:20;;;;;;;5.63;2.63;;;13.60;99.90;;;;;;5036042;28;20057;-74
2022/06/02 06:43:04;;;;;;;6.38;3.47;;;13.70;99.90;;;;;;5034682;28;20025;-74
2022/06/02 06:45:42;;;;;;;5.82;3.13;;;13.90;99.90;;;;;;5035939;28;20485;-74
2022/06/02 06:48:20;;;;;;;7.40;3.45;;;13.90;99.90;;;;;;5034733;28;20468;-74
2022/06/02 06:51:10;;;;;;;4.97;2.33;;;14.00;99.90;;;;;;5035925;28;20503;-74
2022/06/02 06:54:25;;;;;;;6.30;3.45;;;14.10;99.90;;;;;;5034678;28;20392;-74
2022/06/02 06:57:09;;;;;;;5.65;3.03;;;14.20;99.90;;;;;;5016465;28;20053;-74
2022/06/02 06:59:55;;;;;;;6.28;3.47;;;14.30;99.90;;;;;;5035780;28;20022;-73
2022/06/02 07:02:52;;;;;;;5.38;3.45;;;14.40;99.90;;;;;;5035625;28;20038;-74
2022/06/02 07:05:26;;;;;;;6.65;2.38;;;14.70;99.90;;;;;;5035600;28;20029;-74
2022/06/02 07:08:03;;;;;;;3.03;1.45;;;14.90;99.90;;;;;;5035605;28;20514;-74
2022/06/02 07:10:58;;;;;;;8.50;1.98;;;15.20;99.90;;;;;;5035583;28;20029;-74
2022/06/02 07:13:47;;;;;;;2.45;1.52;;;15.30;99.90;;;;;;5035479;28;20032;-74
2022/06/02 07:17:00;;;;;;;1.92;1.23;;;15.20;99.90;;;;;;5035602;28;20021;-74
2022/06/02 07:20:04;;;;;;;5.18;1.35;;;15.10;99.90;;;;;;5025255;28;20037;-74
2022/06/02 07:22:48;;;;;;;3.25;1.35;;;14.70;99.90;;;;;;5035648;28;20037;-73
2022/06/02 07:25:53;;;;;;;2.30;0.82;;;14.70;99.90;;;;;;5034016;28;20036;-72
2022/06/02 07:28:37;;;;;;;2.80;1.42;;;14.80;99.90;;;;;;5035258;28;20522;-72
2022/06/02 07:31:08;;;;;;;1.30;0.80;;;15.20;99.90;;;;;;5035219;28;20032;-72
2022/06/02 07:34:25;;;;;;;3.67;0.80;;;15.60;99.90;;;;;;5034849;28;20431;-71
2022/06/02 07:37:23;;;;;;;4.10;1.13;;;15.90;99.90;;;;;;5017753;28;20044;-72
2022/06/02 07:40:10;;;;;;;1.40;0.93;;;16.20;99.90;;;;;;5033821;28;20017;-72
2022/06/02 07:42:47;;;;;;;6.07;1.00;;;16.40;99.90;;;;;;5034822;28;20108;-72
2022/06/02 07:45:34;;;;;;;6.95;1.30;;;16.50;99.90;;;;;;5034827;28;20504;-72
2022/06/02 07:48:37;;;;;;;1.95;0.85;;;16.30;99.90;;;;;;5034880;28;20482;-72
2022/06/02 07:51:17;;;;;;;3.78;1.05;;;16.10;99.90;;;;;;5035072;28;20030;-72
2022/06/02 07:54:03;;;;;;;5.15;0.95;;;16.00;99.90;;;;;;5033595;28;20546;-72
2022/06/02 07:56:54;;;;;;;4.43;0.85;;;15.80;99.90;;;;;;5027325;28;20037;-72
2022/06/02 07:59:45;;;;;;;2.47;0.50;;;15.80;99.90;;;;;;5035147;28;20060;-74
2022/06/02 08:02:32;;;;;;;5.25;0.90;;;15.70;99.90;;;;;;5034567;28;20123;-73
2022/06/02 08:05:06;;;;;;;3.28;0.77;;;15.60;99.90;;;;;;5034669;28;20387;-73
2022/06/02 08:08:00;;;;;;;2.58;0.77;;;15.60;99.90;;;;;;5034799;28;20075;-74
2022/06/02 08:10:46;;;;;;;1.00;0.63;;;15.40;99.90;;;;;;5033966;28;20515;-73
2022/06/02 08:13:45;;;;;;;2.67;0.50;;;15.40;99.90;;;;;;5034954;28;20033;-73
2022/06/02 08:16:16;;;;;;;5.05;0.50;;;15.60;99.90;;;;;;5034208;28;20036;-73
2022/06/02 08:19:09;;;;;;;3.20;0.30;;;15.90;99.90;;;;;;5034677;28;20018;-73
2022/06/02 08:21:53;;;;;;;0.98;0.40;;;16.20;99.90;;;;;;5034174;28;20021;-73
2022/06/02 08:24:45;;;;;;;0.65;0.22;;;16.30;99.90;;;;;;5034161;28;20037;-71
2022/06/02 08:27:38;;;;;;;3.15;0.30;;;16.50;99.90;;;;;;5034645;28;20105;-71
2022/06/02 08:30:23;;;;;;;0.80;0.30;;;16.80;99.90;;;;;;5027060;28;20045;-71
2022/06/02 08:33:06;;;;;;;1.90;0.45;;;17.10;99.90;;;;;;5034065;28;20025;-72
2022/06/02 08:35:41;;;;;;;3.28;0.40;;;17.10;99.90;;;;;;5032648;28;20029;-73
2022/06/02 08:38:34;;;;;;;4.13;1.10;;;17.00;99.90;;;;;;5034011;28;20022;-73
2022/06/02 08:41:33;;;;;;;0.80;0.17;;;17.10;99.90;;;;;;5032703;28;20018;-73
2022/06/02 08:44:21;;;;;;;2.13;0.77;;;17.40;99.90;;;;;;5035137;28;20025;-72
2022/06/02 08:47:08;;;;;;;2.03;0.35;;;17.50;99.90;;;;;;5033690;28;20087;-72
2022/06/02 08:49:58;;;;;;;2.75;0.20;;;17.60;99.90;;;;;;5033739;28;20112;-72
2022/06/02 08:52:48;;;;;;;0.35;0.30;;;17.50;99.30;;;;;;5033823;28;20032;-74
2022/06/02 08:55:14;;;;;;;2.13;0.32;;;17.20;97.90;;;;;;5033806;28;20025;-74
2022/06/02 08:58:04;;;;;;;1.55;0.47;;;17.20;97.40;;;;;;5033550;28;20537;-72
2022/06/02 09:01:05;;;;;;;2.90;0.55;;;17.20;97.60;;;;;;5033778;28;20029;-71
2022/06/02 09:04:06;;;;;;;0.08;0.00;;;17.10;94.60;;;;;;5033337;28;20132;-74
2022/06/02 09:07:01;;;;;;;1.55;0.17;;;17.30;97.60;;;;;;5032896;28;20041;-73
2022/06/02 09:09:57;;;;;;;3.15;0.32;;;17.60;95.40;;;;;;5033336;28;20061;-73
2022/06/02 09:12:42;;;;;;;0.30;0.20;;;17.70;93.00;;;;;;5033551;28;20022;-73
2022/06/02 09:15:37;;;;;;;1.67;0.10;;;17.70;91.50;;;;;;5033490;28;20490;-76
2022/06/02 09:18:57;;;;;;;2.05;0.47;;;17.80;91.30;;;;;;5034068;28;20036;-76
2022/06/02 09:21:53;;;;;;;1.83;0.30;;;17.90;83.10;;;;;;5033391;28;20488;-76
2022/06/02 09:25:10;;;;;;;0.95;0.00;;;18.00;90.80;;;;;;5031823;28;20029;-73
2022/06/02 09:28:06;;;;;;;0.50;0.00;;;18.20;87.60;;;;;;5010718;28;20036;-73
2022/06/02 09:30:53;;;;;;;1.35;0.00;;;18.30;82.30;;;;;;5033812;28;20499;-72
2022/06/02 09:33:34;;;;;;;0.87;0.17;;;18.50;80.50;;;;;;5031871;28;20026;-74
2022/06/02 09:36:37;;;;;;;1.42;0.25;;;18.50;75.40;;;;;;5031797;28;20021;-74
2022/06/02 09:39:34;;;;;;;0.70;0.00;;;18.40;73.40;;;;;;5033150;28;20033;-74
2022/06/02 09:42:34;;;;;;;3.63;0.00;;;18.60;74.30;;;;;;5033236;28;20408;-74
2022/06/02 09:45:24;;;;;;;1.00;0.30;;;18.70;72.80;;;;;;5031699;28;20091;-74
2022/06/02 09:48:14;;;;;;;0.43;0.00;;;18.90;71.80;;;;;;5033073;28;20017;-73
2022/06/02 09:50:50;;;;;;;1.67;0.10;;;19.00;69.80;;;;;;5033613;28;20487;-74
2022/06/02 09:53:51;;;;;;;3.00;0.10;;;19.00;70.10;;;;;;5031764;28;20396;-72
2022/06/02 09:56:41;;;;;;;0.60;0.25;;;19.00;64.40;;;;;;5032940;28;20049;-71
2022/06/02 09:59:33;;;;;;;1.40;0.00;;;18.90;67.90;;;;;;5034982;28;20040;-72
2022/06/02 10:02:19;;;;;;;0.88;0.00;;;19.10;70.40;;;;;;5036899;28;20045;-76
2022/06/02 10:05:09;;;;;;;0.00;0.00;;;19.40;70.50;;;;;;5037233;28;20033;-76
2022/06/02 10:07:42;;;;;;;1.95;0.45;;;19.60;71.60;;;;;;5037200;28;20033;-74
2022/06/02 10:10:50;;;;;;;2.20;0.03;;;19.90;73.60;;;;;;5035397;28;20025;-74
2022/06/02 10:13:53;;;;;;;1.17;0.15;;;19.80;69.10;;;;;;5036851;28;20022;-74
2022/06/02 10:16:47;;;;;;;1.15;0.40;;;20.00;71.80;;;;;;5036528;28;20369;-73
2022/06/02 10:19:35;;;;;;;1.88;0.03;;;19.80;69.80;;;;;;5017458;28;20034;-77
2022/06/02 10:22:12;;;;;;;1.65;0.43;;;19.90;73.50;;;;;;5037072;28;20075;-76
2022/06/02 10:25:01;;;;;;;1.55;0.00;;;19.60;64.60;;;;;;5036864;28;20492;-76
2022/06/02 10:27:32;;;;;;;0.70;0.15;;;19.20;66.30;;;;;;5031030;28;20084;-73
2022/06/02 10:30:20;;;;;;;0.43;0.00;;;19.30;70.10;;;;;;5036282;28;20038;-73
2022/06/02 10:33:10;;;;;;;1.25;0.00;;;19.10;68.30;;;;;;5034931;28;20026;-73
2022/06/02 10:35:55;;;;;;;0.55;0.00;;;18.70;66.10;;;;;;5036081;28;20017;-73
2022/06/02 10:38:46;;;;;;;0.10;0.00;;;18.30;69.00;;;;;;5036221;28;20052;-73
2022/06/02 10:41:43;;;;;;;0.20;0.03;;;18.00;72.80;;;;;;5036751;28;20048;-73
2022/06/02 10:44:35;;;;;;;0.60;0.00;;;18.20;74.50;;;;;;5036029;28;20033;-73
2022/06/02 10:47:33;;;;;;;1.13;0.35;;;18.60;75.20;;;;;;5034938;28;20079;-73
2022/06/02 10:50:17;;;;;;;;;;;18.80;76.30;;;;;;5035134;28;20030;-73
2022/06/02 10:53:09;;;;;;;0.65;0.00;;;19.20;79.10;;;;;;5035982;28;19994;-71
2022/06/02 10:56:00;;;;;;;0.38;0.00;;;19.30;70.10;;;;;;5035910;28;20111;-71
2022/06/02 10:58:43;;;;;;;1.05;0.03;;;19.70;69.80;;;;;;5036535;28;20025;-71
2022/06/02 11:01:41;;;;;;;1.80;0.10;;;20.10;68.50;;;;;;5035609;28;20022;-71
2022/06/02 11:04:28;;;;;;;1.67;0.00;;;20.30;68.10;;;;;;5035642;28;20034;-71
2022/06/02 11:07:23;;;;;;;2.22;0.10;;;20.30;66.60;;;;;;5035877;28;20032;-71
2022/06/02 11:10:09;;;;;;;1.00;0.00;;;20.60;66.20;;;;;;5034316;28;20022;-71
2022/06/02 11:13:03;;;;;;;1.30;0.85;;;21.00;66.10;;;;;;5035811;28;20047;-71
2022/06/02 11:15:48;;;;;;;1.20;0.00;;;21.10;64.80;;;;;;5035507;28;20021;-71
2022/06/02 11:18:59;;;;;;;0.25;0.00;;;21.30;65.50;;;;;;5035976;28;20037;-72
2022/06/02 11:21:27;;;;;;;0.63;0.00;;;21.70;70.50;;;;;;5019883;28;20443;-71
2022/06/02 11:24:28;;;;;;;1.27;0.10;;;21.70;60.80;;;;;;5035319;28;20044;-71
2022/06/02 11:27:38;;;;;;;0.15;0.10;;;21.40;62.80;;;;;;5035654;28;20041;-71
2022/06/02 11:30:31;;;;;;;1.38;0.20;;;21.20;63.60;;;;;;5034051;28;20151;-71
2022/06/02 11:33:26;;;;;;;0.30;0.00;;;21.40;69.20;;;;;;5033934;28;20037;-71
2022/06/02 11:36:29;;;;;;;0.60;0.03;;;21.70;64.10;;;;;;5019080;28;20099;-71
2022/06/02 11:39:03;;;;;;;0.50;0.20;;;22.10;64.90;;;;;;5014438;28;20510;-71
2022/06/02 11:42:21;;;;;;;1.33;0.10;;;22.30;60.10;;;;;;5035239;28;20496;-71
2022/06/02 11:44:55;;;;;;;1.65;0.05;;;22.40;62.00;;;;;;4977211;28;20130;-71
2022/06/02 11:47:54;;;;;;;0.13;0.13;;;21.90;59.20;;;;;;5024735;28;20026;-71
2022/06/02 11:50:38;;;;;;;0.40;0.10;;;22.00;63.80;;;;;;5035360;28;20022;-74
2022/06/02 11:53:12;;;;;;;1.27;0.00;;;22.50;61.00;;;;;;5035126;28;20538;-73
2022/06/02 11:56:25;;;;;;;0.90;0.10;;;22.60;61.20;;;;;;5034670;28;20442;-73
2022/06/02 11:59:23;;;;;;;1.13;0.10;;;22.60;58.00;;;;;;5000791;28;20040;-73
2022/06/02 12:02:21;;;;;;;0.85;0.00;;;22.60;64.30;;;;;;5034595;28;20041;-73
2022/06/02 12:05:19;;;;;;;0.20;0.00;;;22.80;62.20;;;;;;5034625;28;20404;-72
2022/06/02 12:07:58;;;;;;;;;;;22.90;60.50;;;;;;5033641;28;20537;-77
2022/06/02 12:10:42;;;;;;;2.38;0.03;;;22.60;56.90;;;;;;5033317;28;19905;-76
2022/06/02 12:13:46;;;;;;;2.25;0.00;;;21.90;57.70;;;;;;5033343;28;20345;-77
2022/06/02 12:16:37;;;;;;;0.60;0.10;;;21.40;62.10;;;;;;5033091;28;20037;-76
2022/06/02 12:19:47;;;;;;;2.08;0.10;;;21.10;63.90;;;;;;5034177;28;20022;-73
2022/06/02 12:22:42;;;;;;;0.43;0.00;;;21.20;64.00;;;;;;5014700;28;20076;-73
2022/06/02 12:25:40;;;;;;;0.50;0.00;;;21.30;61.70;;;;;;5031644;28;20087;-73
2022/06/02 12:28:44;;;;;;;0.30;0.00;;;21.40;61.20;;;;;;5017467;28;20042;-72
2022/06/02 12:31:13;;;;;;;0.10;0.00;;;21.30;57.90;;;;;;5034672;28;20033;-72
2022/06/02 12:34:12;;;;;;;3.90;0.00;;;21.40;63.40;;;;;;5033918;28;20037;-72
2022/06/02 12:37:02;;;;;;;1.55;0.00;;;21.80;67.00;;;;;;5032632;28;20546;-72
2022/06/02 12:39:50;;;;;;;0.30;0.00;;;21.80;62.60;;;;;;5032755;28;20026;-72
2022/06/02 12:42:31;;;;;;;0.30;0.00;;;22.00;64.70;;;;;;5034130;28;20029;-72
2022/06/02 12:45:21;;;;;;;1.08;0.10;;;21.90;58.20;;;;;;5033721;28;20127;-72
2022/06/02 12:48:24;;;;;;;0.10;0.00;;;21.70;59.00;;;;;;5032622;28;20048;-72
2022/06/02 12:51:27;;;;;;;0.28;0.00;;;21.70;64.60;;;;;;5032453;28;20064;-72
2022/06/02 12:54:34;;;;;;;1.55;0.00;;;21.70;58.00;;;;;;4999000;28;20033;-72
2022/06/02 12:57:24;;;;;;;0.43;0.03;;;21.70;62.80;;;;;;5004749;28;20036;-72
2022/06/02 13:00:16;;;;;;;0.10;0.00;;;21.90;62.00;;;;;;5033590;28;20473;-72
2022/06/02 13:03:19;;;;;;;1.75;0.00;;;22.10;62.80;;;;;;5032177;28;20099;-72
2022/06/02 13:06:23;;;;;;;0.80;0.00;;;22.10;61.20;;;;;;5033235;28;20070;-72
2022/06/02 13:09:01;;;;;;;1.35;0.20;;;22.00;63.90;;;;;;5033833;28;20079;-72
2022/06/02 13:11:54;;;;;;;0.40;0.00;;;22.00;63.40;;;;;;5033625;28;20384;-73
2022/06/02 13:14:41;;;;;;;0.20;0.00;;;22.10;60.80;;;;;;5033319;28;20025;-72
2022/06/02 13:17:28;;;;;;;0.38;0.00;;;22.70;60.20;;;;;;5033843;28;20029;-72
2022/06/02 13:20:18;;;;;;;0.05;0.00;;;23.10;59.10;;;;;;5033898;28;20026;-74
2022/06/02 13:23:08;;;;;;;0.00;0.00;;;23.10;59.90;;;;;;5032054;28;20040;-74
2022/06/02 13:26:04;;;;;;;1.02;0.00;;;23.60;60.00;;;;;;5031913;28;20025;-74
2022/06/02 13:29:08;;;;;;;0.00;0.00;;;24.30;58.80;;;;;;5032567;28;20384;-74
2022/06/02 13:32:01;;;;;;;1.50;0.00;;;25.00;55.80;;;;;;5032738;28;20026;-74
2022/06/02 13:34:57;;;;;;;0.47;0.00;;;25.10;53.80;;;;;;5033161;28;20021;-74
2022/06/02 13:37:54;;;;;;;2.53;0.00;;;24.70;53.00;;;;;;5033533;28;20034;-73
2022/06/02 13:40:38;;;;;;;0.63;0.00;;;24.10;52.40;;;;;;5033429;28;20380;-72
2022/06/02 13:43:06;;;;;;;1.95;0.00;;;23.40;54.70;;;;;;5033388;28;20025;-74
2022/06/02 13:45:44;;;;;;;0.43;0.00;;;23.00;55.80;;;;;;5032149;28;20029;-76
2022/06/02 13:48:38;;;;;;;1.80;0.00;;;22.90;56.60;;;;;;5033061;28;20028;-73
2022/06/02 13:51:41;;;;;;;1.15;0.10;;;22.70;56.90;;;;;;5031851;28;20264;-73
2022/06/02 13:57:42;;;;;;;0.47;0.17;;;22.40;58.20;;;;;;5033932;28;20100;-72
2022/06/02 14:00:07;;;;;;;0.45;0.00;;;22.40;55.00;;;;;;5033212;28;20053;-72
2022/06/02 14:02:39;;;;;;;4.45;0.25;;;22.90;56.10;;;;;;5032752;28;20040;-72
2022/06/02 14:05:29;;;;;;;0.00;0.00;;;23.40;55.20;;;;;;5032883;28;20101;-72
2022/06/02 14:08:13;;;;;;;0.43;0.00;;;24.10;54.00;;;;;;5032958;28;20101;-71
2022/06/02 14:11:09;;;;;;;1.38;0.00;;;24.60;51.70;;;;;;5033544;28;20113;-71
2022/06/02 14:13:57;;;;;;;3.30;0.35;;;25.20;55.50;;;;;;5033382;28;20029;-72
2022/06/02 14:16:22;;;;;;;0.85;0.08;;;26.20;53.60;;;;;;5032795;28;20026;-72
2022/06/02 14:19:13;;;;;;;0.00;0.00;;;26.70;49.00;;;;;;5032767;28;20028;-71
2022/06/02 14:21:45;;;;;;;1.65;0.00;;;26.70;48.30;;;;;;5031594;28;20113;-72
2022/06/02 14:24:19;;;;;;;0.45;0.00;;;26.70;47.90;;;;;;5033259;28;20380;-72
2022/06/02 14:26:56;;;;;;;0.25;0.20;;;27.00;48.80;;;;;;5033183;28;20063;-72
2022/06/02 14:29:33;;;;;;;1.35;0.00;;;27.20;51.20;;;;;;5033183;28;20064;-71
2022/06/02 14:31:58;;;;;;;1.30;0.00;;;26.80;47.60;;;;;;5032539;28;20057;-74
2022/06/02 14:34:33;;;;;;;0.00;0.00;;;26.00;46.20;;;;;;5032377;28;20484;-74
2022/06/02 14:37:03;;;;;;;1.20;0.00;;;25.50;48.40;;;;;;5032551;28;20369;-74
2022/06/02 14:39:53;;;;;;;1.00;0.00;;;25.30;47.80;;;;;;5032557;28;20013;-74
2022/06/02 14:43:05;;;;;;;2.35;0.00;;;25.50;51.00;;;;;;5032786;28;20025;-74
2022/06/02 14:45:56;;;;;;;0.15;0.00;;;25.70;45.60;;;;;;5034560;28;20075;-74
2022/06/02 14:48:48;;;;;;;0.88;0.00;;;26.00;48.80;;;;;;5030212;28;20102;-74
2022/06/02 14:51:18;;;;;;;0.80;0.10;;;26.40;47.60;;;;;;5036215;28;20095;-74